Time;durP1;ratioP1;P1;durP2;ratioP2;P2;SDS_P1;SDS_P2;PMS_P1;PMS_P2;Temp;Humidity;BMP_temperature;BMP_pressure;BME280_temperature;BME280_humidity;BME280_pressure;Samples;Min_cycle;Max_cycle;Signal;HPM_P1;HPM_P2
2024/02/12 00:00:22;;;;;;;39.03;16.70;;;7.40;99.90;;;;;;4996193;28;20668;-62
2024/02/12 00:02:51;;;;;;;37.77;16.53;;;7.40;99.90;;;;;;4990569;28;20229;-62
2024/02/12 00:05:21;;;;;;;43.57;18.23;;;7.30;99.90;;;;;;4999071;28;20229;-62
2024/02/12 00:07:49;;;;;;;35.47;16.40;;;7.30;99.90;;;;;;4995361;28;20222;-62
2024/02/12 00:10:17;;;;;;;38.10;17.20;;;7.30;99.90;;;;;;4991920;28;20220;-62
2024/02/12 00:12:46;;;;;;;33.03;17.10;;;7.20;99.90;;;;;;4994051;28;20597;-62
2024/02/12 00:15:14;;;;;;;38.03;17.40;;;7.30;99.90;;;;;;4998420;28;20225;-61
2024/02/12 00:17:43;;;;;;;37.23;17.40;;;7.20;99.90;;;;;;4991747;28;20222;-62
2024/02/12 00:20:12;;;;;;;40.10;17.43;;;7.20;99.90;;;;;;4995908;28;20218;-62
2024/02/12 00:22:42;;;;;;;37.80;17.73;;;7.20;99.90;;;;;;5017488;28;20218;-62
2024/02/12 00:25:12;;;;;;;35.67;17.13;;;7.20;99.90;;;;;;5014471;28;20224;-63
2024/02/12 00:27:42;;;;;;;33.13;17.97;;;7.20;99.90;;;;;;5013120;28;20226;-63
2024/02/12 00:30:12;;;;;;;39.20;17.37;;;7.20;99.90;;;;;;5019210;28;20221;-62
2024/02/12 00:32:42;;;;;;;34.60;16.80;;;7.20;99.90;;;;;;5011569;28;20229;-63
2024/02/12 00:35:11;;;;;;;39.70;17.33;;;7.20;99.90;;;;;;5021635;28;20677;-63
2024/02/12 00:37:39;;;;;;;40.87;18.10;;;7.20;99.90;;;;;;5016984;28;20216;-63
2024/02/12 00:40:12;;;;;;;35.23;18.07;;;7.20;99.90;;;;;;5001016;28;20222;-63
2024/02/12 00:42:40;;;;;;;38.87;17.83;;;7.20;99.90;;;;;;4985611;28;20214;-63
2024/02/12 00:45:10;;;;;;;43.67;18.37;;;7.20;99.90;;;;;;4990714;28;20226;-63
2024/02/12 00:47:39;;;;;;;34.43;17.27;;;7.20;99.90;;;;;;4997435;28;20226;-63
2024/02/12 00:50:09;;;;;;;38.47;18.00;;;7.20;99.90;;;;;;4996207;28;20382;-63
2024/02/12 00:52:38;;;;;;;38.80;17.83;;;7.20;99.90;;;;;;4996374;28;20577;-62
2024/02/12 00:55:13;;;;;;;33.50;16.47;;;7.20;99.90;;;;;;4992210;28;20219;-62
2024/02/12 00:57:42;;;;;;;38.07;17.60;;;7.30;99.90;;;;;;4992480;28;20681;-63
2024/02/12 01:00:13;;;;;;;31.80;16.63;;;7.30;99.90;;;;;;4993173;28;20219;-63
2024/02/12 01:02:42;;;;;;;31.67;15.73;;;7.30;99.90;;;;;;4991818;28;20229;-62
2024/02/12 01:05:11;;;;;;;34.27;16.93;;;7.30;99.90;;;;;;4994391;28;20242;-63
2024/02/12 01:07:41;;;;;;;38.47;17.23;;;7.30;99.90;;;;;;5018688;28;20703;-63
2024/02/12 01:10:11;;;;;;;35.10;17.20;;;7.30;99.90;;;;;;5016399;28;20379;-62
2024/02/12 01:12:40;;;;;;;34.23;17.63;;;7.30;99.90;;;;;;5016211;28;20646;-62
2024/02/12 01:15:10;;;;;;;37.93;18.50;;;7.20;99.90;;;;;;5019539;28;20304;-62
2024/02/12 01:17:40;;;;;;;33.97;17.60;;;7.30;99.90;;;;;;5015481;28;20238;-62
2024/02/12 01:20:17;;;;;;;31.37;16.60;;;7.30;99.90;;;;;;5014459;28;20194;-62
2024/02/12 01:22:46;;;;;;;30.10;15.90;;;7.20;99.90;;;;;;5012767;28;20681;-63
2024/02/12 01:25:17;;;;;;;30.73;16.80;;;7.20;99.90;;;;;;5012820;28;20226;-62
2024/02/12 01:27:46;;;;;;;33.60;17.00;;;7.20;99.90;;;;;;5015040;28;20279;-63
2024/02/12 01:30:15;;;;;;;35.33;17.73;;;7.20;99.90;;;;;;5016432;28;20217;-63
2024/02/12 01:32:43;;;;;;;33.67;17.50;;;7.20;99.90;;;;;;5016301;28;20226;-62
2024/02/12 01:35:12;;;;;;;36.97;17.43;;;7.30;99.90;;;;;;5010154;28;20221;-62
2024/02/12 01:37:41;;;;;;;37.67;18.03;;;7.30;99.90;;;;;;4998396;28;20293;-63
2024/02/12 01:40:11;;;;;;;39.33;16.97;;;7.20;99.90;;;;;;4988970;28;20226;-62
2024/02/12 01:42:41;;;;;;;35.87;17.60;;;7.30;99.90;;;;;;4995612;28;20269;-62
2024/02/12 01:45:13;;;;;;;37.10;16.97;;;7.30;99.90;;;;;;4993608;28;20234;-62
2024/02/12 01:47:45;;;;;;;36.67;17.10;;;7.30;99.90;;;;;;4989859;28;20218;-62
2024/02/12 01:50:15;;;;;;;34.50;16.93;;;7.40;99.90;;;;;;4994544;28;20191;-62
2024/02/12 01:52:48;;;;;;;33.73;17.60;;;7.40;99.90;;;;;;4997585;28;20215;-63
2024/02/12 01:55:20;;;;;;;40.77;18.27;;;7.40;99.90;;;;;;4996955;28;20298;-62
2024/02/12 01:57:51;;;;;;;44.30;18.27;;;7.40;99.90;;;;;;4999438;28;20697;-63
2024/02/12 02:00:21;;;;;;;35.33;17.27;;;7.40;99.90;;;;;;4992255;28;20222;-62
2024/02/12 02:02:51;;;;;;;36.80;18.23;;;7.50;99.90;;;;;;4993116;28;20245;-63
2024/02/12 02:05:19;;;;;;;36.87;17.00;;;7.40;99.90;;;;;;4995398;28;20241;-63
2024/02/12 02:07:50;;;;;;;32.27;16.70;;;7.50;99.90;;;;;;4989824;28;20233;-62
2024/02/12 02:10:19;;;;;;;36.30;16.43;;;7.50;99.90;;;;;;5000144;28;20573;-63
2024/02/12 02:12:48;;;;;;;35.30;15.63;;;7.60;99.90;;;;;;4996659;28;20229;-62
2024/02/12 02:15:18;;;;;;;32.40;15.70;;;7.60;99.90;;;;;;4998865;28;20222;-62
2024/02/12 02:17:46;;;;;;;27.63;15.57;;;7.60;99.90;;;;;;4985251;28;20248;-62
2024/02/12 02:20:16;;;;;;;26.77;15.57;;;7.60;99.90;;;;;;4988243;28;20535;-62
2024/02/12 02:22:46;;;;;;;31.57;14.87;;;7.60;99.90;;;;;;4993831;28;20199;-62
2024/02/12 02:25:16;;;;;;;32.50;14.60;;;7.50;99.90;;;;;;5000962;28;20233;-63
2024/02/12 02:27:45;;;;;;;28.57;14.63;;;7.60;99.90;;;;;;5005064;28;20230;-62
2024/02/12 02:30:14;;;;;;;26.97;13.07;;;7.60;99.90;;;;;;5015980;28;20630;-62
2024/02/12 02:32:42;;;;;;;28.70;14.30;;;7.60;99.90;;;;;;5018352;28;20727;-63
2024/02/12 02:35:13;;;;;;;27.63;14.60;;;7.60;99.90;;;;;;5020505;28;20240;-62
2024/02/12 02:37:43;;;;;;;27.87;13.63;;;7.60;99.90;;;;;;4998345;28;20666;-62
2024/02/12 02:40:11;;;;;;;30.77;13.53;;;7.60;99.90;;;;;;4997760;28;20232;-63
2024/02/12 02:42:41;;;;;;;26.07;12.67;;;7.60;99.90;;;;;;4992167;28;20561;-62
2024/02/12 02:45:10;;;;;;;28.70;13.57;;;7.60;99.90;;;;;;4994511;28;20222;-63
2024/02/12 02:47:43;;;;;;;29.47;13.07;;;7.70;99.90;;;;;;4994647;28;20227;-62
2024/02/12 02:50:11;;;;;;;23.20;12.73;;;7.70;99.90;;;;;;4994864;28;20293;-63
2024/02/12 02:52:40;;;;;;;19.63;11.57;;;7.60;99.90;;;;;;5011520;28;20254;-63
2024/02/12 02:55:11;;;;;;;21.83;11.87;;;7.60;99.90;;;;;;5009532;28;20225;-63
2024/02/12 02:57:41;;;;;;;21.07;11.50;;;7.60;99.90;;;;;;5019620;28;20213;-62
2024/02/12 03:00:11;;;;;;;21.70;12.20;;;7.50;99.90;;;;;;5016807;28;20234;-63
2024/02/12 03:02:39;;;;;;;22.97;11.77;;;7.50;99.90;;;;;;5017191;28;20233;-63
2024/02/12 03:05:08;;;;;;;21.03;11.33;;;7.50;99.90;;;;;;5016517;28;20324;-63
2024/02/12 03:07:37;;;;;;;18.63;10.70;;;7.50;99.90;;;;;;5015229;28;20268;-62
2024/02/12 03:10:09;;;;;;;14.43;10.57;;;7.50;99.90;;;;;;5017076;28;20248;-63
2024/02/12 03:12:41;;;;;;;21.57;10.13;;;7.50;99.90;;;;;;5012925;28;20329;-63
2024/02/12 03:15:11;;;;;;;15.33;10.07;;;7.50;99.90;;;;;;5017875;28;20209;-63
2024/02/12 03:17:40;;;;;;;17.37;10.20;;;7.40;99.90;;;;;;5014297;28;20304;-62
2024/02/12 03:20:11;;;;;;;21.10;11.17;;;7.40;99.90;;;;;;5013683;28;20193;-63
2024/02/12 03:22:40;;;;;;;18.07;10.30;;;7.40;99.90;;;;;;5013471;28;20220;-63
2024/02/12 03:25:10;;;;;;;25.20;11.30;;;7.40;99.90;;;;;;4999598;28;20873;-62
2024/02/12 03:27:40;;;;;;;23.93;11.00;;;7.30;99.90;;;;;;4994190;28;20235;-62
2024/02/12 03:30:11;;;;;;;25.80;11.93;;;7.30;99.90;;;;;;4998382;28;20281;-63
2024/02/12 03:32:39;;;;;;;24.13;10.97;;;7.20;99.90;;;;;;4998041;28;20221;-62
2024/02/12 03:35:09;;;;;;;26.70;11.53;;;7.20;99.90;;;;;;5017095;28;20209;-63
2024/02/12 03:37:40;;;;;;;27.20;12.20;;;7.20;99.90;;;;;;4988738;28;20229;-62
2024/02/12 03:40:12;;;;;;;26.93;12.30;;;7.10;99.90;;;;;;4999768;28;20570;-62
2024/02/12 03:42:41;;;;;;;27.50;12.40;;;7.20;99.90;;;;;;4997213;28;20593;-63
2024/02/12 03:45:13;;;;;;;23.47;12.57;;;7.20;99.90;;;;;;4995693;28;20598;-62
2024/02/12 03:47:43;;;;;;;22.70;12.50;;;7.20;99.90;;;;;;4990887;28;20223;-63
2024/02/12 04:01:26;;;;;;;25.53;13.07;;;7.20;99.90;;;;;;4993154;28;20590;-62
2024/02/12 04:03:54;;;;;;;30.80;12.27;;;7.30;99.90;;;;;;4996002;28;20717;-63
2024/02/12 04:06:24;;;;;;;26.23;11.90;;;7.30;99.90;;;;;;4995009;28;20226;-62
2024/02/12 04:08:53;;;;;;;28.60;12.23;;;7.30;99.90;;;;;;4991853;28;20656;-63
2024/02/12 04:11:21;;;;;;;33.13;11.97;;;7.20;99.90;;;;;;4993979;28;20205;-62
2024/02/12 04:13:49;;;;;;;27.03;11.33;;;7.20;99.90;;;;;;4998878;28;20214;-63
2024/02/12 04:16:18;;;;;;;25.63;10.77;;;7.20;99.90;;;;;;4993532;28;20230;-63
2024/02/12 04:18:48;;;;;;;24.83;10.97;;;7.20;99.90;;;;;;4987070;28;20348;-63
2024/02/12 04:21:20;;;;;;;32.50;12.00;;;7.20;99.90;;;;;;4995545;28;20224;-62
2024/02/12 04:23:49;;;;;;;25.37;10.17;;;7.10;99.90;;;;;;4985551;28;20314;-63
2024/02/12 04:26:21;;;;;;;21.87;9.53;;;7.00;99.90;;;;;;4999336;28;20194;-62
2024/02/12 04:28:50;;;;;;;22.47;9.87;;;7.00;99.90;;;;;;4994556;28;20550;-63
2024/02/12 04:31:18;;;;;;;23.57;9.53;;;7.00;99.90;;;;;;4999272;28;20312;-62
2024/02/12 04:33:47;;;;;;;24.33;9.87;;;7.00;99.90;;;;;;4995798;28;20576;-62
2024/02/12 04:36:16;;;;;;;22.40;7.93;;;6.90;99.90;;;;;;4996640;28;20252;-62
2024/02/12 04:38:45;;;;;;;20.60;7.60;;;6.90;99.90;;;;;;4992353;28;20226;-63
2024/02/12 04:41:13;;;;;;;29.93;7.70;;;6.80;99.90;;;;;;4994343;28;20294;-62
2024/02/12 04:43:42;;;;;;;22.43;7.50;;;6.80;99.90;;;;;;4997325;28;20187;-62
2024/02/12 04:46:10;;;;;;;27.23;7.57;;;6.70;99.90;;;;;;4999232;28;20217;-62
2024/02/12 04:48:40;;;;;;;15.63;6.33;;;6.70;99.90;;;;;;5014393;28;20230;-62
2024/02/12 04:51:11;;;;;;;18.53;6.70;;;6.60;99.90;;;;;;5027266;28;20860;-63
2024/02/12 04:53:39;;;;;;;21.83;6.43;;;6.60;99.90;;;;;;5023331;28;20688;-63
2024/02/12 04:56:08;;;;;;;16.47;6.23;;;6.60;99.90;;;;;;5021039;28;20198;-63
2024/02/12 04:58:38;;;;;;;14.40;5.60;;;6.50;99.90;;;;;;5022311;28;20221;-62
2024/02/12 05:01:07;;;;;;;21.13;5.93;;;6.50;99.90;;;;;;5017630;28;20230;-62
2024/02/12 05:03:37;;;;;;;17.23;5.90;;;6.50;99.90;;;;;;5022510;28;20218;-62
2024/02/12 05:06:06;;;;;;;16.90;5.67;;;6.40;99.90;;;;;;5019452;28;20229;-62
2024/02/12 05:08:36;;;;;;;13.40;5.67;;;6.40;99.90;;;;;;5015433;28;20737;-62
2024/02/12 05:11:05;;;;;;;20.27;5.20;;;6.50;99.90;;;;;;5016616;28;20193;-63
2024/02/12 05:13:33;;;;;;;11.67;5.10;;;6.40;99.90;;;;;;5020720;28;20230;-62
2024/02/12 05:16:04;;;;;;;14.50;5.47;;;6.40;99.90;;;;;;5018444;28;20233;-62
2024/02/12 05:24:02;;;;;;;11.90;5.47;;;6.40;99.90;;;;;;5006030;28;20237;-63
2024/02/12 05:26:30;;;;;;;24.90;5.07;;;6.30;99.90;;;;;;5012875;28;20197;-63
2024/02/12 05:28:59;;;;;;;20.10;4.90;;;6.30;99.90;;;;;;5017796;28;20259;-62
2024/02/12 05:31:27;;;;;;;15.97;4.87;;;6.30;99.90;;;;;;5020714;28;20336;-63
2024/02/12 05:33:56;;;;;;;16.47;5.47;;;6.30;99.90;;;;;;5013848;28;20697;-63
2024/02/12 05:36:27;;;;;;;15.87;4.87;;;6.20;99.90;;;;;;5007864;28;20563;-62
2024/02/12 05:38:55;;;;;;;15.73;4.87;;;6.20;99.90;;;;;;5019086;28;20285;-62
2024/02/12 05:41:24;;;;;;;28.17;5.07;;;6.10;99.90;;;;;;5015587;28;20206;-62
2024/02/12 05:43:53;;;;;;;13.57;4.27;;;6.10;99.90;;;;;;5017096;28;20197;-62
2024/02/12 05:46:22;;;;;;;13.13;4.70;;;6.10;99.90;;;;;;5013474;28;20222;-62
2024/02/12 05:48:50;;;;;;;9.13;4.10;;;6.00;99.90;;;;;;5020737;28;20213;-62
2024/02/12 05:51:18;;;;;;;9.63;4.13;;;6.00;99.90;;;;;;5008360;28;20222;-63
2024/02/12 05:53:47;;;;;;;12.07;4.80;;;5.90;99.90;;;;;;5022238;28;20228;-62
2024/02/12 05:56:16;;;;;;;16.77;4.63;;;5.80;99.90;;;;;;5018896;28;20221;-61
2024/02/12 05:58:45;;;;;;;19.67;5.17;;;5.80;99.90;;;;;;5017036;28;20607;-62
2024/02/12 06:01:14;;;;;;;15.30;4.20;;;5.70;99.90;;;;;;5008629;28;20222;-62
2024/02/12 06:03:42;;;;;;;16.93;4.37;;;5.70;99.90;;;;;;5013332;28;20297;-62
2024/02/12 06:06:12;;;;;;;15.63;4.03;;;5.70;99.90;;;;;;5012763;28;20229;-62
2024/02/12 06:08:41;;;;;;;13.23;4.00;;;5.60;99.90;;;;;;5014628;28;20233;-63
2024/02/12 06:11:09;;;;;;;20.87;4.87;;;5.60;99.90;;;;;;5012977;28;20784;-63
2024/02/12 06:13:38;;;;;;;9.33;3.70;;;5.50;99.90;;;;;;5015810;28;20221;-63
2024/02/12 06:16:08;;;;;;;14.67;4.20;;;5.50;99.90;;;;;;5013842;28;20228;-63
2024/02/12 06:18:36;;;;;;;12.13;4.00;;;5.40;99.90;;;;;;5017496;28;20218;-62
2024/02/12 06:21:05;;;;;;;17.47;4.37;;;5.40;99.90;;;;;;5013826;28;20264;-63
2024/02/12 06:23:33;;;;;;;10.43;4.03;;;5.30;99.90;;;;;;5017912;28;20217;-62
2024/02/12 06:26:02;;;;;;;11.77;3.83;;;5.30;99.90;;;;;;5011830;28;20292;-62
2024/02/12 06:28:30;;;;;;;11.23;3.90;;;5.20;99.90;;;;;;5016015;28;20277;-62
2024/02/12 06:30:59;;;;;;;14.37;4.00;;;5.20;99.90;;;;;;4999274;28;20219;-62
2024/02/12 06:33:28;;;;;;;15.60;4.00;;;5.20;99.90;;;;;;4996482;28;20288;-62
2024/02/12 06:36:01;;;;;;;15.23;4.50;;;5.20;99.90;;;;;;4993774;28;20834;-62
2024/02/12 06:38:30;;;;;;;18.97;4.60;;;5.20;99.90;;;;;;4995907;28;20190;-62
2024/02/12 06:41:00;;;;;;;15.73;3.97;;;5.20;99.90;;;;;;4993119;28;20835;-63
2024/02/12 06:43:29;;;;;;;20.53;4.47;;;5.10;99.90;;;;;;4991970;28;20223;-63
2024/02/12 06:45:58;;;;;;;16.23;4.37;;;5.10;99.90;;;;;;4992155;28;20581;-63
2024/02/12 06:48:27;;;;;;;12.83;3.70;;;5.10;99.90;;;;;;4997466;28;20230;-63
2024/02/12 06:50:57;;;;;;;16.20;3.97;;;5.00;99.90;;;;;;4991975;28;20277;-61
2024/02/12 06:53:25;;;;;;;11.00;3.73;;;5.00;99.90;;;;;;4989715;28;20211;-61
2024/02/12 06:55:53;;;;;;;9.83;3.67;;;5.00;99.90;;;;;;4992496;28;20701;-61
2024/02/12 06:58:22;;;;;;;16.37;3.70;;;4.90;99.90;;;;;;4990248;28;22041;-60
2024/02/12 07:00:54;;;;;;;12.23;3.87;;;4.90;99.90;;;;;;4991344;28;20218;-60
2024/02/12 07:03:22;;;;;;;13.23;4.03;;;4.90;99.90;;;;;;4994036;28;20765;-61
2024/02/12 07:05:52;;;;;;;10.50;4.37;;;4.90;99.90;;;;;;4997157;28;20236;-61
2024/02/12 07:08:21;;;;;;;13.47;4.30;;;4.80;99.90;;;;;;4997302;28;20218;-61
2024/02/12 07:10:49;;;;;;;16.90;4.27;;;4.90;99.90;;;;;;5000193;28;20709;-61
2024/02/12 07:13:18;;;;;;;15.53;4.77;;;4.90;99.90;;;;;;4993955;28;20218;-61
2024/02/12 07:15:46;;;;;;;20.40;4.90;;;4.90;99.90;;;;;;4998136;28;20229;-61
2024/02/12 07:18:15;;;;;;;13.87;5.07;;;4.80;99.90;;;;;;4996242;28;20228;-61
2024/02/12 07:20:42;;;;;;;21.17;5.23;;;4.80;99.90;;;;;;4992271;28;20222;-61
2024/02/12 07:23:12;;;;;;;20.13;5.23;;;4.80;99.90;;;;;;4993402;28;20666;-61
2024/02/12 07:25:41;;;;;;;19.87;5.23;;;4.80;99.90;;;;;;4995887;28;20234;-60
2024/02/12 07:28:10;;;;;;;13.20;6.10;;;4.80;99.90;;;;;;4990360;28;20345;-61
2024/02/12 07:30:39;;;;;;;15.07;5.80;;;4.80;99.90;;;;;;4998034;28;20218;-60
2024/02/12 07:33:07;;;;;;;20.13;5.47;;;4.80;99.90;;;;;;4993378;28;20284;-60
2024/02/12 07:35:36;;;;;;;16.33;5.67;;;4.80;99.90;;;;;;4994170;28;20235;-61
2024/02/12 07:38:05;;;;;;;17.37;7.00;;;4.80;99.90;;;;;;5014111;28;20194;-61
2024/02/12 07:40:35;;;;;;;28.50;7.37;;;4.80;99.90;;;;;;5012233;28;20719;-61
2024/02/12 07:43:05;;;;;;;18.17;6.87;;;4.80;99.90;;;;;;5009242;28;20222;-61
2024/02/12 07:45:34;;;;;;;31.50;6.93;;;4.70;99.90;;;;;;5009303;28;20216;-60
2024/02/12 07:48:03;;;;;;;25.87;7.40;;;4.70;99.90;;;;;;5007519;28;20593;-61
2024/02/12 07:50:32;;;;;;;17.30;7.57;;;4.80;99.90;;;;;;5005483;28;20213;-61
2024/02/12 07:53:00;;;;;;;25.87;7.93;;;4.80;99.90;;;;;;5006933;28;20193;-61
2024/02/12 07:55:30;;;;;;;28.07;8.03;;;5.00;99.90;;;;;;5010927;28;20280;-60
2024/02/12 07:58:00;;;;;;;31.07;8.00;;;5.10;99.90;;;;;;5014337;28;20222;-61
2024/02/12 08:00:28;;;;;;;23.40;8.83;;;5.20;99.90;;;;;;5007758;28;20226;-61
2024/02/12 08:02:56;;;;;;;28.80;8.37;;;5.30;99.90;;;;;;5014184;28;20225;-61
2024/02/12 08:05:25;;;;;;;30.83;9.07;;;5.40;99.90;;;;;;5011662;28;20680;-60
2024/02/12 08:07:53;;;;;;;33.70;9.00;;;5.40;99.90;;;;;;5010074;28;20224;-61
2024/02/12 08:10:31;;;;;;;29.70;8.50;;;5.50;99.90;;;;;;5012460;28;20218;-61
2024/02/12 08:13:04;;;;;;;22.60;8.20;;;5.60;99.90;;;;;;5011886;28;20249;-61
2024/02/12 08:15:32;;;;;;;31.87;9.00;;;5.70;99.90;;;;;;5011949;28;20218;-61
2024/02/12 08:18:00;;;;;;;29.20;8.70;;;5.70;99.90;;;;;;5015695;28;20246;-61
2024/02/12 08:20:29;;;;;;;24.83;8.17;;;5.80;99.90;;;;;;5016403;28;20240;-61
2024/02/12 08:22:57;;;;;;;15.73;6.87;;;5.90;99.90;;;;;;5019752;28;20251;-60
2024/02/12 08:25:27;;;;;;;19.37;7.77;;;5.90;99.90;;;;;;5018408;28;20222;-60
2024/02/12 08:27:56;;;;;;;25.67;7.67;;;5.90;99.90;;;;;;5019739;28;20226;-61
2024/02/12 08:30:26;;;;;;;24.53;8.23;;;6.00;99.90;;;;;;5015161;28;20335;-60
2024/02/12 08:32:54;;;;;;;27.00;8.17;;;6.00;99.90;;;;;;5019986;28;20236;-61
2024/02/12 08:35:23;;;;;;;23.83;7.57;;;6.10;99.90;;;;;;5021973;28;20217;-60
2024/02/12 08:37:51;;;;;;;23.57;8.20;;;6.20;99.90;;;;;;5022920;28;20256;-60
2024/02/12 08:40:20;;;;;;;29.20;7.33;;;6.40;99.90;;;;;;5019719;28;20304;-61
2024/02/12 08:42:50;;;;;;;20.70;7.23;;;6.50;99.90;;;;;;5019420;28;20240;-61
2024/02/12 08:45:18;;;;;;;21.23;6.87;;;6.60;99.90;;;;;;5019375;28;20236;-61
2024/02/12 08:47:48;;;;;;;26.40;7.53;;;6.60;99.90;;;;;;5021171;28;20252;-61
2024/02/12 08:50:17;;;;;;;22.90;6.70;;;6.70;99.90;;;;;;5018005;28;20526;-61
2024/02/12 08:52:45;;;;;;;20.43;6.13;;;6.90;99.90;;;;;;5022779;28;20198;-62
2024/02/12 08:55:16;;;;;;;18.47;6.23;;;7.00;99.90;;;;;;5022790;28;20588;-61
2024/02/12 08:57:44;;;;;;;19.50;5.73;;;7.10;99.90;;;;;;5015213;28;20236;-61
2024/02/12 09:00:18;;;;;;;17.07;5.23;;;7.30;99.90;;;;;;5019680;28;20677;-61
2024/02/12 09:02:48;;;;;;;18.57;5.47;;;7.40;99.90;;;;;;5020794;28;20241;-61
2024/02/12 09:05:16;;;;;;;16.27;5.73;;;7.60;99.90;;;;;;5019844;28;20233;-61
2024/02/12 09:07:45;;;;;;;12.80;4.63;;;7.60;99.90;;;;;;5020069;28;20190;-61
2024/02/12 09:10:13;;;;;;;15.50;4.83;;;7.50;99.90;;;;;;5020348;28;20221;-61
2024/02/12 09:12:42;;;;;;;13.83;4.90;;;7.50;99.90;;;;;;5021545;28;20226;-62
2024/02/12 09:15:21;;;;;;;15.17;4.43;;;7.50;99.90;;;;;;5019310;28;20691;-61
2024/02/12 09:17:52;;;;;;;8.10;4.53;;;7.50;99.90;;;;;;5020313;28;20225;-61
2024/02/12 09:20:21;;;;;;;13.67;4.63;;;7.60;99.90;;;;;;5023391;28;20645;-62
2024/02/12 09:22:49;;;;;;;16.00;3.87;;;7.90;99.90;;;;;;5020362;28;20212;-61
2024/02/12 09:25:17;;;;;;;14.57;4.07;;;8.20;99.90;;;;;;5024289;28;20217;-62
2024/02/12 09:27:46;;;;;;;8.40;3.27;;;8.50;99.90;;;;;;5017661;28;20245;-61
2024/02/12 09:30:17;;;;;;;9.70;3.63;;;8.70;99.90;;;;;;5017585;28;20352;-62
2024/02/12 09:32:47;;;;;;;8.57;3.50;;;8.90;99.90;;;;;;5022128;28;20221;-62
2024/02/12 09:35:18;;;;;;;7.87;3.23;;;9.10;99.90;;;;;;5020323;28;20196;-62
2024/02/12 09:37:49;;;;;;;10.97;3.27;;;9.30;99.90;;;;;;5023414;28;20293;-62
2024/02/12 09:40:21;;;;;;;10.47;2.90;;;9.50;99.90;;;;;;5022206;28;21215;-62
2024/02/12 09:42:54;;;;;;;9.97;2.50;;;9.70;99.90;;;;;;5020570;28;20321;-61
2024/02/12 09:45:25;;;;;;;10.13;2.70;;;9.90;99.90;;;;;;5018450;28;20317;-62
2024/02/12 09:47:54;;;;;;;9.50;3.03;;;10.10;99.90;;;;;;5021601;28;20272;-62
2024/02/12 09:50:24;;;;;;;8.80;2.73;;;10.10;99.90;;;;;;5018836;28;20190;-61
2024/02/12 09:52:56;;;;;;;7.27;2.80;;;10.00;99.90;;;;;;5020870;28;20221;-62
2024/02/12 09:55:26;;;;;;;7.70;2.60;;;10.10;99.90;;;;;;5017771;28;20283;-62
2024/02/12 09:57:54;;;;;;;9.13;2.70;;;10.20;99.90;;;;;;5018899;28;20225;-61
2024/02/12 10:00:23;;;;;;;7.43;2.67;;;10.40;99.90;;;;;;5014412;28;20584;-62
2024/02/12 10:02:53;;;;;;;5.00;2.63;;;10.50;99.90;;;;;;5022315;28;20563;-62
2024/02/12 10:05:24;;;;;;;10.43;2.70;;;10.50;99.90;;;;;;5023750;28;20279;-62
2024/02/12 10:07:53;;;;;;;8.43;2.50;;;10.70;99.90;;;;;;5018144;28;20248;-62
2024/02/12 10:10:21;;;;;;;9.73;2.80;;;10.60;99.90;;;;;;5023041;28;20232;-62
2024/02/12 10:12:53;;;;;;;7.87;2.20;;;10.50;99.90;;;;;;5016499;28;20222;-61
2024/02/12 10:15:23;;;;;;;8.03;2.90;;;10.20;99.90;;;;;;5017775;28;20245;-61
2024/02/12 10:17:55;;;;;;;9.97;2.90;;;9.90;99.90;;;;;;5018510;28;20588;-61
2024/02/12 10:20:25;;;;;;;9.90;3.47;;;9.70;99.90;;;;;;5017566;28;20850;-62
2024/02/12 10:22:55;;;;;;;7.53;3.30;;;9.50;99.90;;;;;;5018443;28;20210;-62
2024/02/12 10:25:24;;;;;;;9.87;2.80;;;9.40;99.90;;;;;;5018909;28;20230;-62
2024/02/12 10:27:53;;;;;;;7.50;3.63;;;9.30;99.90;;;;;;5016236;28;20602;-61
2024/02/12 10:30:21;;;;;;;15.80;3.57;;;9.20;99.90;;;;;;5023016;28;20261;-62
2024/02/12 10:32:51;;;;;;;5.87;3.10;;;9.20;99.90;;;;;;5018277;28;20232;-61
2024/02/12 10:35:23;;;;;;;10.80;3.40;;;9.20;99.90;;;;;;5017997;28;20194;-61
2024/02/12 10:37:54;;;;;;;13.80;4.37;;;9.10;99.90;;;;;;5017251;28;20294;-61
2024/02/12 10:40:30;;;;;;;8.67;3.63;;;9.20;99.90;;;;;;5017374;28;20248;-62
2024/02/12 10:43:05;;;;;;;7.23;3.23;;;9.30;99.90;;;;;;5019905;28;20225;-62
2024/02/12 10:45:34;;;;;;;11.27;3.47;;;9.50;99.90;;;;;;5010446;28;20249;-61
2024/02/12 10:48:05;;;;;;;11.07;3.50;;;9.70;99.90;;;;;;5019088;28;20315;-61
2024/02/12 10:50:36;;;;;;;9.80;3.13;;;9.90;99.90;;;;;;5017557;28;20233;-62
2024/02/12 10:53:08;;;;;;;5.93;3.73;;;10.00;99.90;;;;;;5016394;28;20580;-62
2024/02/12 10:55:38;;;;;;;9.33;3.10;;;10.10;99.90;;;;;;5017091;28;20554;-62
2024/02/12 10:58:09;;;;;;;8.77;3.43;;;10.30;99.90;;;;;;5019267;28;20639;-62
2024/02/12 11:00:39;;;;;;;5.80;2.77;;;10.70;99.90;;;;;;5020917;28;20615;-62
2024/02/12 11:03:16;;;;;;;9.47;3.00;;;11.20;99.90;;;;;;5024652;28;20701;-62
2024/02/12 11:05:45;;;;;;;6.80;3.00;;;11.50;99.90;;;;;;4999185;28;20234;-62
2024/02/12 11:08:18;;;;;;;6.27;2.80;;;11.80;99.90;;;;;;5014861;28;20281;-62
2024/02/12 11:10:49;;;;;;;7.33;2.60;;;11.80;93.70;;;;;;5019160;28;20198;-62
2024/02/12 11:13:21;;;;;;;8.10;2.53;;;11.60;91.00;;;;;;5015730;28;20274;-63
2024/02/12 11:15:50;;;;;;;6.90;2.90;;;11.50;98.30;;;;;;5022359;28;20248;-62
2024/02/12 11:18:22;;;;;;;8.23;2.50;;;11.60;93.00;;;;;;5016110;28;20233;-62
2024/02/12 11:20:52;;;;;;;17.20;3.30;;;11.70;94.20;;;;;;5020113;28;20704;-62
2024/02/12 11:23:23;;;;;;;11.50;2.87;;;11.70;87.10;;;;;;5017024;28;20198;-63
2024/02/12 11:25:55;;;;;;;4.90;2.40;;;11.50;71.90;;;;;;5016097;28;20696;-62
2024/02/12 11:28:27;;;;;;;6.93;3.07;;;11.20;95.10;;;;;;5018938;28;20220;-62
2024/02/12 11:30:59;;;;;;;7.53;3.03;;;10.90;93.40;;;;;;5019323;28;20225;-62
2024/02/12 11:33:27;;;;;;;4.03;2.37;;;10.90;99.90;;;;;;5018928;28;20264;-62
2024/02/12 11:36:10;;;;;;;9.90;2.50;;;11.50;95.40;;;;;;5011382;28;20232;-62
2024/02/12 11:38:50;;;;;;;8.33;2.90;;;12.20;97.40;;;;;;5017022;28;20225;-63
2024/02/12 11:41:18;;;;;;;7.27;2.50;;;12.80;70.90;;;;;;5016873;28;20208;-62
2024/02/12 11:43:48;;;;;;;9.67;2.80;;;12.70;52.30;;;;;;5016843;28;20232;-62
2024/02/12 11:46:18;;;;;;;4.73;2.23;;;12.10;51.10;;;;;;5014884;28;20309;-62
2024/02/12 11:48:47;;;;;;;5.33;2.10;;;11.70;71.30;;;;;;5015133;28;20275;-62
2024/02/12 11:51:21;;;;;;;6.23;2.37;;;11.50;48.50;;;;;;5016365;28;20649;-62
2024/02/12 11:53:53;;;;;;;4.47;2.20;;;11.40;3.70;;;;;;5019083;28;20688;-62
2024/02/12 11:56:23;;;;;;;4.73;2.07;;;11.40;1.00;;;;;;5017467;28;20194;-62
2024/02/12 11:58:54;;;;;;;5.83;2.00;;;11.40;1.00;;;;;;5012405;28;20210;-62
2024/02/12 12:01:24;;;;;;;5.20;2.03;;;11.80;1.00;;;;;;5015512;28;20276;-62
2024/02/12 12:03:53;;;;;;;8.97;2.20;;;12.40;1.00;;;;;;5016761;28;20228;-62
2024/02/12 12:06:23;;;;;;;9.77;2.10;;;12.80;1.00;;;;;;5016912;28;20225;-62
2024/02/12 12:08:53;;;;;;;8.50;2.53;;;13.00;1.00;;;;;;5017525;28;20229;-62
2024/02/12 12:11:22;;;;;;;5.63;2.03;;;13.20;99.90;;;;;;5019782;28;20188;-62
2024/02/12 12:13:59;;;;;;;7.37;1.87;;;13.40;1.00;;;;;;5022968;28;20200;-62
2024/02/12 12:16:28;;;;;;;6.00;1.70;;;13.70;99.90;;;;;;5017001;28;20220;-62
2024/02/12 12:18:58;;;;;;;10.33;1.80;;;13.70;99.90;;;;;;5019410;28;20232;-62
2024/02/12 12:21:27;;;;;;;5.47;1.60;;;13.80;99.90;;;;;;5018023;28;20217;-63
2024/02/12 12:23:57;;;;;;;4.63;1.80;;;13.90;99.90;;;;;;5017341;28;20305;-62
2024/02/12 12:26:26;;;;;;;1.73;1.63;;;14.20;1.00;;;;;;5017583;28;20289;-63
2024/02/12 12:28:55;;;;;;;4.17;1.73;;;14.30;99.90;;;;;;4996634;28;20210;-63
2024/02/12 12:31:23;;;;;;;3.83;1.60;;;14.10;58.40;;;;;;4996834;28;20225;-63
2024/02/12 12:33:51;;;;;;;4.90;1.70;;;13.90;1.00;;;;;;4999362;28;20214;-63
2024/02/12 12:36:20;;;;;;;6.83;1.67;;;14.20;1.00;;;;;;4998167;28;20281;-63
2024/02/12 12:38:48;;;;;;;8.03;2.17;;;14.20;1.00;;;;;;4996172;28;20288;-63
2024/02/12 12:41:22;;;;;;;5.30;1.67;;;13.90;1.00;;;;;;4995724;28;20205;-62
2024/02/12 12:43:51;;;;;;;5.30;1.67;;;13.30;99.90;;;;;;5002878;28;20310;-63
2024/02/12 12:46:23;;;;;;;6.10;2.00;;;12.80;99.90;;;;;;4996276;28;20270;-62
2024/02/12 12:48:51;;;;;;;5.27;1.80;;;12.40;99.90;;;;;;4987823;28;20216;-63
2024/02/12 12:51:20;;;;;;;7.63;2.10;;;12.30;99.90;;;;;;4997582;28;20239;-63
2024/02/12 12:53:48;;;;;;;6.73;2.23;;;12.10;1.00;;;;;;4996104;28;20301;-62
2024/02/12 12:56:16;;;;;;;5.10;1.70;;;11.70;1.00;;;;;;5000382;28;20282;-62
2024/02/12 12:58:48;;;;;;;6.53;1.90;;;11.60;1.00;;;;;;5000413;28;20566;-62
2024/02/12 13:01:17;;;;;;;3.00;1.77;;;11.50;1.00;;;;;;4995960;28;20669;-62
2024/02/12 13:03:45;;;;;;;3.47;1.80;;;11.90;1.00;;;;;;4996813;28;20673;-62
2024/02/12 13:06:15;;;;;;;3.23;1.70;;;12.50;1.00;;;;;;4999095;28;20238;-63
2024/02/12 13:08:45;;;;;;;3.23;1.60;;;13.20;1.00;;;;;;4998671;28;20223;-63
2024/02/12 13:11:13;;;;;;;2.20;1.50;;;13.90;1.00;;;;;;5003007;28;20205;-61
2024/02/12 13:13:41;;;;;;;5.37;1.70;;;14.30;1.00;;;;;;5007495;28;20193;-63